sensor_id;sensor_type;location;lat;lon;timestamp;P1;durP1;ratioP1;P2;durP2;ratioP2
56183;SDS011;42086;53.170;6.980;2022-07-29T00:00:30;3.60;;;1.60;;
56183;SDS011;42086;53.170;6.980;2022-07-29T00:02:56;2.63;;;1.52;;
56183;SDS011;42086;53.170;6.980;2022-07-29T00:05:22;4.10;;;2.00;;
56183;SDS011;42086;53.170;6.980;2022-07-29T00:07:48;3.80;;;1.88;;
56183;SDS011;42086;53.170;6.980;2022-07-29T00:10:14;3.88;;;1.95;;
56183;SDS011;42086;53.170;6.980;2022-07-29T00:12:40;5.07;;;1.83;;
56183;SDS011;42086;53.170;6.980;2022-07-29T00:15:06;2.45;;;2.00;;
56183;SDS011;42086;53.170;6.980;2022-07-29T00:17:33;2.97;;;1.75;;
56183;SDS011;42086;53.170;6.980;2022-07-29T00:19:59;3.42;;;1.63;;
56183;SDS011;42086;53.170;6.980;2022-07-29T00:22:25;4.65;;;1.90;;
56183;SDS011;42086;53.170;6.980;2022-07-29T00:24:51;3.25;;;1.75;;
56183;SDS011;42086;53.170;6.980;2022-07-29T00:27:18;3.65;;;1.83;;
56183;SDS011;42086;53.170;6.980;2022-07-29T00:29:44;3.00;;;1.85;;
56183;SDS011;42086;53.170;6.980;2022-07-29T00:32:10;3.22;;;1.42;;
56183;SDS011;42086;53.170;6.980;2022-07-29T00:34:36;3.35;;;2.20;;
56183;SDS011;42086;53.170;6.980;2022-07-29T00:37:21;5.13;;;1.80;;
56183;SDS011;42086;53.170;6.980;2022-07-29T00:39:47;5.40;;;2.15;;
56183;SDS011;42086;53.170;6.980;2022-07-29T00:42:13;1.65;;;1.50;;
56183;SDS011;42086;53.170;6.980;2022-07-29T00:44:40;5.25;;;1.92;;
56183;SDS011;42086;53.170;6.980;2022-07-29T00:47:07;3.22;;;1.77;;
56183;SDS011;42086;53.170;6.980;2022-07-29T00:49:35;3.40;;;1.70;;
56183;SDS011;42086;53.170;6.980;2022-07-29T00:52:02;3.05;;;2.00;;
56183;SDS011;42086;53.170;6.980;2022-07-29T00:54:29;4.15;;;2.10;;
56183;SDS011;42086;53.170;6.980;2022-07-29T00:56:58;5.35;;;2.08;;
56183;SDS011;42086;53.170;6.980;2022-07-29T00:59:26;2.45;;;1.77;;
56183;SDS011;42086;53.170;6.980;2022-07-29T01:01:53;8.60;;;2.22;;
56183;SDS011;42086;53.170;6.980;2022-07-29T01:04:20;2.60;;;1.80;;
56183;SDS011;42086;53.170;6.980;2022-07-29T01:06:50;4.18;;;1.80;;
56183;SDS011;42086;53.170;6.980;2022-07-29T01:09:17;3.35;;;1.77;;
56183;SDS011;42086;53.170;6.980;2022-07-29T01:11:44;3.60;;;1.88;;
56183;SDS011;42086;53.170;6.980;2022-07-29T01:14:12;6.80;;;1.90;;
56183;SDS011;42086;53.170;6.980;2022-07-29T01:16:54;5.68;;;1.73;;
56183;SDS011;42086;53.170;6.980;2022-07-29T01:22:31;2.97;;;1.65;;
56183;SDS011;42086;53.170;6.980;2022-07-29T01:30:58;2.75;;;1.50;;
56183;SDS011;42086;53.170;6.980;2022-07-29T01:33:25;3.78;;;1.85;;
56183;SDS011;42086;53.170;6.980;2022-07-29T01:36:13;2.50;;;1.45;;
56183;SDS011;42086;53.170;6.980;2022-07-29T01:38:44;4.13;;;1.65;;
56183;SDS011;42086;53.170;6.980;2022-07-29T01:43:56;2.20;;;1.70;;
56183;SDS011;42086;53.170;6.980;2022-07-29T01:46:36;2.55;;;1.60;;
56183;SDS011;42086;53.170;6.980;2022-07-29T01:49:15;1.67;;;1.42;;
56183;SDS011;42086;53.170;6.980;2022-07-29T01:51:48;2.17;;;1.48;;
56183;SDS011;42086;53.170;6.980;2022-07-29T01:54:19;2.55;;;1.65;;
56183;SDS011;42086;53.170;6.980;2022-07-29T01:56:50;6.55;;;1.70;;
56183;SDS011;42086;53.170;6.980;2022-07-29T01:59:18;2.97;;;1.63;;
56183;SDS011;42086;53.170;6.980;2022-07-29T02:01:49;3.35;;;1.65;;
56183;SDS011;42086;53.170;6.980;2022-07-29T02:04:18;4.82;;;1.73;;
56183;SDS011;42086;53.170;6.980;2022-07-29T02:06:45;3.20;;;1.55;;
56183;SDS011;42086;53.170;6.980;2022-07-29T02:09:14;3.45;;;1.45;;
56183;SDS011;42086;53.170;6.980;2022-07-29T02:11:41;2.25;;;1.58;;
56183;SDS011;42086;53.170;6.980;2022-07-29T02:14:13;6.05;;;1.40;;
56183;SDS011;42086;53.170;6.980;2022-07-29T02:16:42;4.18;;;1.40;;
56183;SDS011;42086;53.170;6.980;2022-07-29T02:19:10;2.33;;;1.50;;
56183;SDS011;42086;53.170;6.980;2022-07-29T02:21:39;3.63;;;1.30;;
56183;SDS011;42086;53.170;6.980;2022-07-29T02:24:05;4.20;;;1.67;;
56183;SDS011;42086;53.170;6.980;2022-07-29T02:26:33;3.00;;;1.58;;
56183;SDS011;42086;53.170;6.980;2022-07-29T02:28:59;4.93;;;1.25;;
56183;SDS011;42086;53.170;6.980;2022-07-29T02:31:28;2.63;;;1.48;;
56183;SDS011;42086;53.170;6.980;2022-07-29T02:33:59;4.72;;;1.60;;
56183;SDS011;42086;53.170;6.980;2022-07-29T02:36:27;4.80;;;1.80;;
56183;SDS011;42086;53.170;6.980;2022-07-29T02:38:54;4.45;;;1.60;;
56183;SDS011;42086;53.170;6.980;2022-07-29T02:41:29;2.92;;;1.55;;
56183;SDS011;42086;53.170;6.980;2022-07-29T02:44:02;4.00;;;1.67;;
56183;SDS011;42086;53.170;6.980;2022-07-29T02:46:32;4.65;;;2.05;;
56183;SDS011;42086;53.170;6.980;2022-07-29T02:49:04;4.72;;;1.50;;
56183;SDS011;42086;53.170;6.980;2022-07-29T02:51:52;4.15;;;1.80;;
56183;SDS011;42086;53.170;6.980;2022-07-29T02:54:39;6.20;;;1.65;;
56183;SDS011;42086;53.170;6.980;2022-07-29T02:57:11;2.58;;;1.55;;
56183;SDS011;42086;53.170;6.980;2022-07-29T02:59:44;3.55;;;1.75;;
56183;SDS011;42086;53.170;6.980;2022-07-29T03:02:13;3.97;;;1.65;;
56183;SDS011;42086;53.170;6.980;2022-07-29T03:04:41;4.35;;;1.85;;
56183;SDS011;42086;53.170;6.980;2022-07-29T03:07:08;5.60;;;1.98;;
56183;SDS011;42086;53.170;6.980;2022-07-29T03:09:38;2.92;;;1.60;;
56183;SDS011;42086;53.170;6.980;2022-07-29T03:12:06;3.78;;;1.90;;
56183;SDS011;42086;53.170;6.980;2022-07-29T03:14:33;2.97;;;1.73;;
56183;SDS011;42086;53.170;6.980;2022-07-29T03:17:00;3.97;;;1.60;;
56183;SDS011;42086;53.170;6.980;2022-07-29T03:19:28;2.92;;;1.50;;
56183;SDS011;42086;53.170;6.980;2022-07-29T03:21:55;5.78;;;1.70;;
56183;SDS011;42086;53.170;6.980;2022-07-29T03:24:30;4.80;;;1.60;;
56183;SDS011;42086;53.170;6.980;2022-07-29T03:26:57;4.35;;;1.83;;
56183;SDS011;42086;53.170;6.980;2022-07-29T03:29:23;4.50;;;1.80;;
56183;SDS011;42086;53.170;6.980;2022-07-29T03:31:50;3.38;;;1.90;;
56183;SDS011;42086;53.170;6.980;2022-07-29T03:34:17;3.70;;;1.70;;
56183;SDS011;42086;53.170;6.980;2022-07-29T03:36:43;5.88;;;1.70;;
56183;SDS011;42086;53.170;6.980;2022-07-29T03:39:09;6.20;;;2.30;;
56183;SDS011;42086;53.170;6.980;2022-07-29T03:41:42;7.97;;;2.00;;
56183;SDS011;42086;53.170;6.980;2022-07-29T03:44:09;5.75;;;2.08;;
56183;SDS011;42086;53.170;6.980;2022-07-29T03:46:37;3.15;;;1.95;;
56183;SDS011;42086;53.170;6.980;2022-07-29T03:49:05;3.50;;;1.65;;
56183;SDS011;42086;53.170;6.980;2022-07-29T03:51:33;8.20;;;2.20;;
56183;SDS011;42086;53.170;6.980;2022-07-29T03:54:01;2.70;;;2.00;;
56183;SDS011;42086;53.170;6.980;2022-07-29T03:56:28;2.47;;;1.70;;
56183;SDS011;42086;53.170;6.980;2022-07-29T03:58:57;3.65;;;1.83;;
56183;SDS011;42086;53.170;6.980;2022-07-29T04:01:24;4.72;;;1.92;;
56183;SDS011;42086;53.170;6.980;2022-07-29T04:03:52;4.07;;;1.98;;
56183;SDS011;42086;53.170;6.980;2022-07-29T04:06:18;4.93;;;1.85;;
56183;SDS011;42086;53.170;6.980;2022-07-29T04:08:44;2.80;;;1.80;;
56183;SDS011;42086;53.170;6.980;2022-07-29T04:11:10;4.38;;;1.85;;
56183;SDS011;42086;53.170;6.980;2022-07-29T04:13:36;5.10;;;1.73;;
56183;SDS011;42086;53.170;6.980;2022-07-29T04:16:03;3.95;;;2.10;;
56183;SDS011;42086;53.170;6.980;2022-07-29T04:18:29;3.08;;;1.80;;
56183;SDS011;42086;53.170;6.980;2022-07-29T04:20:55;4.38;;;2.08;;
56183;SDS011;42086;53.170;6.980;2022-07-29T04:23:24;6.22;;;1.88;;
56183;SDS011;42086;53.170;6.980;2022-07-29T04:25:51;4.95;;;1.77;;
56183;SDS011;42086;53.170;6.980;2022-07-29T04:28:17;2.97;;;2.00;;
56183;SDS011;42086;53.170;6.980;2022-07-29T04:30:43;4.53;;;2.05;;
56183;SDS011;42086;53.170;6.980;2022-07-29T04:33:10;6.90;;;1.90;;
56183;SDS011;42086;53.170;6.980;2022-07-29T04:35:36;5.25;;;2.00;;
56183;SDS011;42086;53.170;6.980;2022-07-29T04:38:03;4.63;;;1.85;;
56183;SDS011;42086;53.170;6.980;2022-07-29T04:40:31;4.10;;;2.10;;
56183;SDS011;42086;53.170;6.980;2022-07-29T04:42:58;4.05;;;1.92;;
56183;SDS011;42086;53.170;6.980;2022-07-29T04:45:26;4.57;;;2.05;;
56183;SDS011;42086;53.170;6.980;2022-07-29T04:47:53;4.07;;;1.98;;
56183;SDS011;42086;53.170;6.980;2022-07-29T04:50:20;7.55;;;2.25;;
56183;SDS011;42086;53.170;6.980;2022-07-29T04:52:46;3.63;;;1.95;;
56183;SDS011;42086;53.170;6.980;2022-07-29T04:55:12;3.28;;;1.90;;
56183;SDS011;42086;53.170;6.980;2022-07-29T04:57:38;3.90;;;2.10;;
56183;SDS011;42086;53.170;6.980;2022-07-29T05:00:04;5.45;;;2.15;;
56183;SDS011;42086;53.170;6.980;2022-07-29T05:02:31;2.47;;;1.80;;
56183;SDS011;42086;53.170;6.980;2022-07-29T05:04:57;4.25;;;1.90;;
56183;SDS011;42086;53.170;6.980;2022-07-29T05:07:23;3.90;;;2.08;;
56183;SDS011;42086;53.170;6.980;2022-07-29T05:09:49;5.93;;;2.25;;
56183;SDS011;42086;53.170;6.980;2022-07-29T05:12:15;5.93;;;2.03;;
56183;SDS011;42086;53.170;6.980;2022-07-29T05:14:41;6.45;;;2.42;;
56183;SDS011;42086;53.170;6.980;2022-07-29T05:17:08;6.75;;;2.20;;
56183;SDS011;42086;53.170;6.980;2022-07-29T05:19:34;7.03;;;2.10;;
56183;SDS011;42086;53.170;6.980;2022-07-29T05:22:00;4.25;;;1.95;;
56183;SDS011;42086;53.170;6.980;2022-07-29T05:24:26;3.38;;;1.80;;
56183;SDS011;42086;53.170;6.980;2022-07-29T05:26:52;6.15;;;2.05;;
56183;SDS011;42086;53.170;6.980;2022-07-29T05:29:18;4.85;;;2.30;;
56183;SDS011;42086;53.170;6.980;2022-07-29T05:31:44;3.90;;;2.10;;
56183;SDS011;42086;53.170;6.980;2022-07-29T05:34:13;5.10;;;2.30;;
56183;SDS011;42086;53.170;6.980;2022-07-29T05:36:38;4.40;;;2.10;;
56183;SDS011;42086;53.170;6.980;2022-07-29T05:39:07;7.70;;;2.28;;
56183;SDS011;42086;53.170;6.980;2022-07-29T05:41:33;5.97;;;2.20;;
56183;SDS011;42086;53.170;6.980;2022-07-29T05:43:59;7.68;;;2.08;;
56183;SDS011;42086;53.170;6.980;2022-07-29T05:46:25;5.20;;;2.00;;
56183;SDS011;42086;53.170;6.980;2022-07-29T05:48:51;3.35;;;2.15;;
56183;SDS011;42086;53.170;6.980;2022-07-29T05:51:17;4.43;;;2.25;;
56183;SDS011;42086;53.170;6.980;2022-07-29T05:53:43;5.85;;;2.13;;
56183;SDS011;42086;53.170;6.980;2022-07-29T05:56:10;3.90;;;2.00;;
56183;SDS011;42086;53.170;6.980;2022-07-29T05:58:36;4.00;;;2.22;;
56183;SDS011;42086;53.170;6.980;2022-07-29T06:01:02;5.38;;;2.28;;
56183;SDS011;42086;53.170;6.980;2022-07-29T06:03:28;4.20;;;2.28;;
56183;SDS011;42086;53.170;6.980;2022-07-29T06:05:55;4.88;;;2.03;;
56183;SDS011;42086;53.170;6.980;2022-07-29T06:08:21;6.30;;;2.38;;
56183;SDS011;42086;53.170;6.980;2022-07-29T06:10:47;4.25;;;1.92;;
56183;SDS011;42086;53.170;6.980;2022-07-29T06:13:13;6.55;;;2.20;;
56183;SDS011;42086;53.170;6.980;2022-07-29T06:15:40;4.10;;;1.90;;
56183;SDS011;42086;53.170;6.980;2022-07-29T06:18:07;5.50;;;2.30;;
56183;SDS011;42086;53.170;6.980;2022-07-29T06:20:34;4.97;;;2.20;;
56183;SDS011;42086;53.170;6.980;2022-07-29T06:23:00;5.75;;;2.60;;
56183;SDS011;42086;53.170;6.980;2022-07-29T06:25:29;6.45;;;2.33;;
56183;SDS011;42086;53.170;6.980;2022-07-29T06:27:56;3.92;;;1.88;;
56183;SDS011;42086;53.170;6.980;2022-07-29T06:30:22;5.88;;;2.47;;
56183;SDS011;42086;53.170;6.980;2022-07-29T06:32:48;4.93;;;2.45;;
56183;SDS011;42086;53.170;6.980;2022-07-29T06:35:14;3.30;;;2.00;;
56183;SDS011;42086;53.170;6.980;2022-07-29T06:37:40;4.28;;;2.00;;
56183;SDS011;42086;53.170;6.980;2022-07-29T06:40:06;3.38;;;2.13;;
56183;SDS011;42086;53.170;6.980;2022-07-29T06:42:51;7.07;;;1.92;;
56183;SDS011;42086;53.170;6.980;2022-07-29T06:45:16;4.78;;;2.20;;
56183;SDS011;42086;53.170;6.980;2022-07-29T06:47:42;3.65;;;2.15;;
56183;SDS011;42086;53.170;6.980;2022-07-29T06:50:08;5.10;;;2.13;;
56183;SDS011;42086;53.170;6.980;2022-07-29T06:52:38;4.78;;;2.30;;
56183;SDS011;42086;53.170;6.980;2022-07-29T06:55:04;4.63;;;2.22;;
56183;SDS011;42086;53.170;6.980;2022-07-29T06:57:30;5.05;;;2.03;;
56183;SDS011;42086;53.170;6.980;2022-07-29T06:59:56;5.88;;;2.40;;
56183;SDS011;42086;53.170;6.980;2022-07-29T07:02:22;2.55;;;2.00;;
56183;SDS011;42086;53.170;6.980;2022-07-29T07:04:48;5.03;;;2.20;;
56183;SDS011;42086;53.170;6.980;2022-07-29T07:07:14;3.65;;;2.50;;
56183;SDS011;42086;53.170;6.980;2022-07-29T07:09:40;3.70;;;2.10;;
56183;SDS011;42086;53.170;6.980;2022-07-29T07:12:06;3.47;;;2.13;;
56183;SDS011;42086;53.170;6.980;2022-07-29T07:14:33;2.45;;;2.00;;
56183;SDS011;42086;53.170;6.980;2022-07-29T07:16:59;3.75;;;2.00;;
56183;SDS011;42086;53.170;6.980;2022-07-29T07:19:25;4.88;;;2.20;;
56183;SDS011;42086;53.170;6.980;2022-07-29T07:21:52;4.38;;;2.28;;
56183;SDS011;42086;53.170;6.980;2022-07-29T07:24:19;5.07;;;2.05;;
56183;SDS011;42086;53.170;6.980;2022-07-29T07:26:45;8.77;;;2.47;;
56183;SDS011;42086;53.170;6.980;2022-07-29T07:29:11;5.35;;;1.95;;
56183;SDS011;42086;53.170;6.980;2022-07-29T07:31:38;6.70;;;2.15;;
56183;SDS011;42086;53.170;6.980;2022-07-29T07:34:04;3.13;;;1.98;;
56183;SDS011;42086;53.170;6.980;2022-07-29T07:36:30;4.35;;;2.28;;
56183;SDS011;42086;53.170;6.980;2022-07-29T07:38:56;4.75;;;2.20;;
56183;SDS011;42086;53.170;6.980;2022-07-29T07:41:22;5.70;;;2.20;;
56183;SDS011;42086;53.170;6.980;2022-07-29T07:43:49;5.40;;;2.28;;
56183;SDS011;42086;53.170;6.980;2022-07-29T07:46:15;2.67;;;1.95;;
56183;SDS011;42086;53.170;6.980;2022-07-29T07:48:41;6.75;;;2.10;;
56183;SDS011;42086;53.170;6.980;2022-07-29T07:51:07;5.78;;;2.20;;
56183;SDS011;42086;53.170;6.980;2022-07-29T07:53:34;4.28;;;2.30;;
56183;SDS011;42086;53.170;6.980;2022-07-29T07:56:00;6.13;;;2.28;;
56183;SDS011;42086;53.170;6.980;2022-07-29T07:58:27;6.68;;;2.70;;
56183;SDS011;42086;53.170;6.980;2022-07-29T08:00:53;3.38;;;2.30;;
56183;SDS011;42086;53.170;6.980;2022-07-29T08:03:20;5.97;;;2.40;;
56183;SDS011;42086;53.170;6.980;2022-07-29T08:05:46;6.07;;;2.40;;
56183;SDS011;42086;53.170;6.980;2022-07-29T08:08:13;8.18;;;2.30;;
56183;SDS011;42086;53.170;6.980;2022-07-29T08:10:39;6.43;;;2.30;;
56183;SDS011;42086;53.170;6.980;2022-07-29T08:13:17;3.92;;;2.40;;
56183;SDS011;42086;53.170;6.980;2022-07-29T08:15:45;4.45;;;2.28;;
56183;SDS011;42086;53.170;6.980;2022-07-29T08:18:12;5.30;;;2.33;;
56183;SDS011;42086;53.170;6.980;2022-07-29T08:20:38;3.53;;;2.22;;
56183;SDS011;42086;53.170;6.980;2022-07-29T08:23:05;7.35;;;2.38;;
56183;SDS011;42086;53.170;6.980;2022-07-29T08:25:35;4.82;;;2.55;;
56183;SDS011;42086;53.170;6.980;2022-07-29T08:28:01;4.72;;;2.30;;
56183;SDS011;42086;53.170;6.980;2022-07-29T08:30:28;4.20;;;2.40;;
56183;SDS011;42086;53.170;6.980;2022-07-29T08:32:54;3.30;;;2.22;;
56183;SDS011;42086;53.170;6.980;2022-07-29T08:35:38;5.80;;;2.63;;
56183;SDS011;42086;53.170;6.980;2022-07-29T08:38:05;6.40;;;2.10;;
56183;SDS011;42086;53.170;6.980;2022-07-29T08:40:33;6.55;;;2.22;;
56183;SDS011;42086;53.170;6.980;2022-07-29T08:43:06;5.13;;;2.35;;
56183;SDS011;42086;53.170;6.980;2022-07-29T08:45:48;6.53;;;2.78;;
56183;SDS011;42086;53.170;6.980;2022-07-29T08:48:16;6.22;;;2.53;;
56183;SDS011;42086;53.170;6.980;2022-07-29T08:50:46;3.70;;;2.42;;
56183;SDS011;42086;53.170;6.980;2022-07-29T08:53:15;5.18;;;2.80;;
56183;SDS011;42086;53.170;6.980;2022-07-29T08:55:46;3.95;;;2.40;;
56183;SDS011;42086;53.170;6.980;2022-07-29T08:58:14;6.63;;;2.55;;
56183;SDS011;42086;53.170;6.980;2022-07-29T09:00:42;4.20;;;2.50;;
56183;SDS011;42086;53.170;6.980;2022-07-29T09:03:15;5.65;;;2.78;;
56183;SDS011;42086;53.170;6.980;2022-07-29T09:05:44;5.18;;;2.70;;
56183;SDS011;42086;53.170;6.980;2022-07-29T09:08:12;6.40;;;2.40;;
56183;SDS011;42086;53.170;6.980;2022-07-29T09:10:39;7.28;;;2.67;;
56183;SDS011;42086;53.170;6.980;2022-07-29T09:13:05;4.72;;;2.60;;
56183;SDS011;42086;53.170;6.980;2022-07-29T09:15:31;4.68;;;2.60;;
56183;SDS011;42086;53.170;6.980;2022-07-29T09:17:57;4.45;;;2.53;;
56183;SDS011;42086;53.170;6.980;2022-07-29T09:20:25;3.97;;;2.30;;
56183;SDS011;42086;53.170;6.980;2022-07-29T09:23:11;6.20;;;2.42;;
56183;SDS011;42086;53.170;6.980;2022-07-29T09:25:38;5.53;;;2.55;;
56183;SDS011;42086;53.170;6.980;2022-07-29T09:28:12;7.05;;;2.78;;
56183;SDS011;42086;53.170;6.980;2022-07-29T09:30:54;4.70;;;2.42;;
56183;SDS011;42086;53.170;6.980;2022-07-29T09:33:22;4.67;;;2.30;;
56183;SDS011;42086;53.170;6.980;2022-07-29T09:35:59;3.67;;;2.17;;
56183;SDS011;42086;53.170;6.980;2022-07-29T09:38:32;4.43;;;2.45;;
56183;SDS011;42086;53.170;6.980;2022-07-29T09:41:00;3.78;;;2.40;;
56183;SDS011;42086;53.170;6.980;2022-07-29T09:43:27;9.27;;;2.70;;
56183;SDS011;42086;53.170;6.980;2022-07-29T09:45:53;6.75;;;2.40;;
56183;SDS011;42086;53.170;6.980;2022-07-29T09:48:20;6.53;;;2.53;;
56183;SDS011;42086;53.170;6.980;2022-07-29T09:50:48;7.65;;;2.40;;
56183;SDS011;42086;53.170;6.980;2022-07-29T09:56:00;3.97;;;2.40;;
56183;SDS011;42086;53.170;6.980;2022-07-29T09:58:27;6.40;;;2.70;;
56183;SDS011;42086;53.170;6.980;2022-07-29T10:00:53;3.85;;;2.40;;
56183;SDS011;42086;53.170;6.980;2022-07-29T10:03:23;5.70;;;2.45;;
56183;SDS011;42086;53.170;6.980;2022-07-29T10:06:05;6.65;;;2.58;;
56183;SDS011;42086;53.170;6.980;2022-07-29T10:08:36;5.18;;;3.05;;
56183;SDS011;42086;53.170;6.980;2022-07-29T10:11:15;4.35;;;2.58;;
56183;SDS011;42086;53.170;6.980;2022-07-29T10:13:44;5.87;;;2.30;;
56183;SDS011;42086;53.170;6.980;2022-07-29T10:16:11;6.43;;;2.63;;
56183;SDS011;42086;53.170;6.980;2022-07-29T10:18:38;6.82;;;2.70;;
56183;SDS011;42086;53.170;6.980;2022-07-29T10:21:06;4.25;;;2.60;;
56183;SDS011;42086;53.170;6.980;2022-07-29T10:23:32;5.43;;;2.55;;
56183;SDS011;42086;53.170;6.980;2022-07-29T10:26:03;6.27;;;2.57;;
56183;SDS011;42086;53.170;6.980;2022-07-29T10:28:30;6.72;;;2.92;;
56183;SDS011;42086;53.170;6.980;2022-07-29T10:31:04;4.30;;;2.63;;
56183;SDS011;42086;53.170;6.980;2022-07-29T10:36:38;9.93;;;2.60;;
56183;SDS011;42086;53.170;6.980;2022-07-29T10:39:24;3.97;;;2.60;;
56183;SDS011;42086;53.170;6.980;2022-07-29T10:42:14;7.28;;;2.55;;
56183;SDS011;42086;53.170;6.980;2022-07-29T10:44:42;6.75;;;2.50;;
56183;SDS011;42086;53.170;6.980;2022-07-29T10:47:19;4.13;;;2.60;;
56183;SDS011;42086;53.170;6.980;2022-07-29T10:49:56;7.60;;;2.78;;
56183;SDS011;42086;53.170;6.980;2022-07-29T10:58:14;7.68;;;2.83;;
56183;SDS011;42086;53.170;6.980;2022-07-29T11:00:52;6.25;;;2.83;;
56183;SDS011;42086;53.170;6.980;2022-07-29T11:06:12;11.02;;;2.85;;
56183;SDS011;42086;53.170;6.980;2022-07-29T11:08:39;6.30;;;2.50;;
56183;SDS011;42086;53.170;6.980;2022-07-29T11:16:15;5.35;;;2.50;;
56183;SDS011;42086;53.170;6.980;2022-07-29T11:21:36;5.95;;;2.40;;
56183;SDS011;42086;53.170;6.980;2022-07-29T11:24:16;4.37;;;2.90;;
56183;SDS011;42086;53.170;6.980;2022-07-29T11:26:44;5.40;;;2.90;;
56183;SDS011;42086;53.170;6.980;2022-07-29T11:29:16;5.55;;;3.03;;
56183;SDS011;42086;53.170;6.980;2022-07-29T11:31:44;5.60;;;2.83;;
56183;SDS011;42086;53.170;6.980;2022-07-29T11:34:26;5.78;;;2.80;;
56183;SDS011;42086;53.170;6.980;2022-07-29T11:40:19;5.90;;;2.50;;
56183;SDS011;42086;53.170;6.980;2022-07-29T11:47:40;6.53;;;2.92;;
56183;SDS011;42086;53.170;6.980;2022-07-29T11:50:28;4.80;;;2.60;;
56183;SDS011;42086;53.170;6.980;2022-07-29T11:53:11;5.40;;;2.90;;
56183;SDS011;42086;53.170;6.980;2022-07-29T11:55:39;5.50;;;3.00;;
56183;SDS011;42086;53.170;6.980;2022-07-29T11:58:06;5.63;;;2.85;;
56183;SDS011;42086;53.170;6.980;2022-07-29T12:00:39;6.30;;;2.90;;
56183;SDS011;42086;53.170;6.980;2022-07-29T12:03:08;4.65;;;2.67;;
56183;SDS011;42086;53.170;6.980;2022-07-29T12:05:42;5.10;;;3.08;;
56183;SDS011;42086;53.170;6.980;2022-07-29T12:08:12;8.32;;;2.80;;
56183;SDS011;42086;53.170;6.980;2022-07-29T12:10:50;8.80;;;2.88;;
56183;SDS011;42086;53.170;6.980;2022-07-29T12:13:17;5.05;;;2.90;;
56183;SDS011;42086;53.170;6.980;2022-07-29T12:15:51;5.88;;;2.60;;
56183;SDS011;42086;53.170;6.980;2022-07-29T12:18:20;14.00;;;3.00;;
56183;SDS011;42086;53.170;6.980;2022-07-29T12:20:47;5.75;;;2.70;;
56183;SDS011;42086;53.170;6.980;2022-07-29T12:23:14;6.63;;;2.80;;
56183;SDS011;42086;53.170;6.980;2022-07-29T12:25:42;5.88;;;3.10;;
56183;SDS011;42086;53.170;6.980;2022-07-29T12:28:10;5.68;;;2.78;;
56183;SDS011;42086;53.170;6.980;2022-07-29T12:30:39;8.40;;;3.17;;
56183;SDS011;42086;53.170;6.980;2022-07-29T12:33:14;6.70;;;2.63;;
56183;SDS011;42086;53.170;6.980;2022-07-29T12:35:44;7.35;;;2.72;;
56183;SDS011;42086;53.170;6.980;2022-07-29T12:38:13;7.75;;;2.90;;
56183;SDS011;42086;53.170;6.980;2022-07-29T12:40:42;12.75;;;3.13;;
56183;SDS011;42086;53.170;6.980;2022-07-29T12:43:10;7.38;;;3.08;;
56183;SDS011;42086;53.170;6.980;2022-07-29T12:45:46;6.13;;;2.90;;
56183;SDS011;42086;53.170;6.980;2022-07-29T12:48:15;5.78;;;3.00;;
56183;SDS011;42086;53.170;6.980;2022-07-29T12:50:55;5.88;;;2.78;;
56183;SDS011;42086;53.170;6.980;2022-07-29T12:53:25;5.72;;;3.03;;
56183;SDS011;42086;53.170;6.980;2022-07-29T12:55:52;5.20;;;2.78;;
56183;SDS011;42086;53.170;6.980;2022-07-29T13:01:12;6.20;;;3.40;;
56183;SDS011;42086;53.170;6.980;2022-07-29T13:03:44;6.35;;;2.85;;
56183;SDS011;42086;53.170;6.980;2022-07-29T13:09:05;5.32;;;2.90;;
56183;SDS011;42086;53.170;6.980;2022-07-29T13:11:34;7.30;;;2.75;;
56183;SDS011;42086;53.170;6.980;2022-07-29T13:14:02;6.28;;;2.45;;
56183;SDS011;42086;53.170;6.980;2022-07-29T13:16:29;3.97;;;2.70;;
56183;SDS011;42086;53.170;6.980;2022-07-29T13:19:08;6.72;;;2.90;;
56183;SDS011;42086;53.170;6.980;2022-07-29T13:21:36;15.27;;;4.43;;
56183;SDS011;42086;53.170;6.980;2022-07-29T13:24:04;14.90;;;4.35;;
56183;SDS011;42086;53.170;6.980;2022-07-29T13:26:31;5.65;;;2.65;;
56183;SDS011;42086;53.170;6.980;2022-07-29T13:28:57;4.18;;;2.65;;
56183;SDS011;42086;53.170;6.980;2022-07-29T13:31:23;42.28;;;4.72;;
56183;SDS011;42086;53.170;6.980;2022-07-29T13:33:49;8.65;;;2.92;;
56183;SDS011;42086;53.170;6.980;2022-07-29T13:36:15;10.52;;;3.25;;
56183;SDS011;42086;53.170;6.980;2022-07-29T13:38:41;9.07;;;2.90;;
56183;SDS011;42086;53.170;6.980;2022-07-29T13:41:07;7.18;;;2.92;;
56183;SDS011;42086;53.170;6.980;2022-07-29T13:43:34;8.23;;;2.83;;
56183;SDS011;42086;53.170;6.980;2022-07-29T13:46:00;5.05;;;2.60;;
56183;SDS011;42086;53.170;6.980;2022-07-29T13:48:26;7.63;;;3.13;;
56183;SDS011;42086;53.170;6.980;2022-07-29T13:50:52;4.60;;;2.75;;
56183;SDS011;42086;53.170;6.980;2022-07-29T13:53:17;5.63;;;2.40;;
56183;SDS011;42086;53.170;6.980;2022-07-29T13:55:43;5.07;;;2.70;;
56183;SDS011;42086;53.170;6.980;2022-07-29T13:58:12;7.60;;;2.42;;
56183;SDS011;42086;53.170;6.980;2022-07-29T14:00:38;4.22;;;2.30;;
56183;SDS011;42086;53.170;6.980;2022-07-29T14:03:04;5.05;;;2.50;;
56183;SDS011;42086;53.170;6.980;2022-07-29T14:05:31;4.05;;;2.42;;
56183;SDS011;42086;53.170;6.980;2022-07-29T14:07:57;4.95;;;2.40;;
56183;SDS011;42086;53.170;6.980;2022-07-29T14:10:23;4.88;;;2.70;;
56183;SDS011;42086;53.170;6.980;2022-07-29T14:12:49;5.30;;;2.58;;
56183;SDS011;42086;53.170;6.980;2022-07-29T14:15:15;5.53;;;2.88;;
56183;SDS011;42086;53.170;6.980;2022-07-29T14:17:42;4.88;;;2.50;;
56183;SDS011;42086;53.170;6.980;2022-07-29T14:20:08;6.45;;;2.90;;
56183;SDS011;42086;53.170;6.980;2022-07-29T14:22:34;4.82;;;2.60;;
56183;SDS011;42086;53.170;6.980;2022-07-29T14:25:00;5.30;;;2.90;;
56183;SDS011;42086;53.170;6.980;2022-07-29T14:27:26;4.07;;;2.58;;
56183;SDS011;42086;53.170;6.980;2022-07-29T14:29:53;5.57;;;2.60;;
56183;SDS011;42086;53.170;6.980;2022-07-29T14:32:19;6.35;;;2.33;;
56183;SDS011;42086;53.170;6.980;2022-07-29T14:34:45;8.95;;;2.70;;
56183;SDS011;42086;53.170;6.980;2022-07-29T14:37:11;8.27;;;2.70;;
56183;SDS011;42086;53.170;6.980;2022-07-29T14:39:37;5.85;;;2.50;;
56183;SDS011;42086;53.170;6.980;2022-07-29T14:42:04;6.18;;;2.50;;
56183;SDS011;42086;53.170;6.980;2022-07-29T14:44:30;4.93;;;2.65;;
56183;SDS011;42086;53.170;6.980;2022-07-29T14:46:59;9.68;;;2.45;;
56183;SDS011;42086;53.170;6.980;2022-07-29T14:49:26;7.28;;;2.50;;
56183;SDS011;42086;53.170;6.980;2022-07-29T14:51:52;9.82;;;2.90;;
56183;SDS011;42086;53.170;6.980;2022-07-29T14:54:18;4.43;;;2.25;;
56183;SDS011;42086;53.170;6.980;2022-07-29T14:56:44;4.70;;;2.28;;
56183;SDS011;42086;53.170;6.980;2022-07-29T14:59:11;5.82;;;2.40;;
56183;SDS011;42086;53.170;6.980;2022-07-29T15:01:40;5.45;;;2.40;;
56183;SDS011;42086;53.170;6.980;2022-07-29T15:04:06;5.88;;;2.20;;
56183;SDS011;42086;53.170;6.980;2022-07-29T15:06:33;3.83;;;2.22;;
56183;SDS011;42086;53.170;6.980;2022-07-29T15:08:59;5.97;;;2.13;;
56183;SDS011;42086;53.170;6.980;2022-07-29T15:11:25;5.55;;;2.17;;
56183;SDS011;42086;53.170;6.980;2022-07-29T15:13:51;3.25;;;1.88;;
56183;SDS011;42086;53.170;6.980;2022-07-29T15:16:17;4.68;;;1.92;;
56183;SDS011;42086;53.170;6.980;2022-07-29T15:18:44;4.35;;;1.83;;
56183;SDS011;42086;53.170;6.980;2022-07-29T15:21:10;5.30;;;2.03;;
56183;SDS011;42086;53.170;6.980;2022-07-29T15:23:36;5.78;;;2.10;;
56183;SDS011;42086;53.170;6.980;2022-07-29T15:26:03;3.60;;;2.17;;
56183;SDS011;42086;53.170;6.980;2022-07-29T15:28:30;5.05;;;1.90;;
56183;SDS011;42086;53.170;6.980;2022-07-29T15:30:56;4.82;;;2.08;;
56183;SDS011;42086;53.170;6.980;2022-07-29T15:33:22;4.68;;;1.85;;
56183;SDS011;42086;53.170;6.980;2022-07-29T15:35:48;4.90;;;2.05;;
56183;SDS011;42086;53.170;6.980;2022-07-29T15:38:15;5.88;;;2.25;;
56183;SDS011;42086;53.170;6.980;2022-07-29T15:40:41;3.47;;;1.85;;
56183;SDS011;42086;53.170;6.980;2022-07-29T15:43:09;4.25;;;2.28;;